Time;durP1;ratioP1;P1;durP2;ratioP2;P2;SDS_P1;SDS_P2;PMS_P1;PMS_P2;Temp;Humidity;BMP_temperature;BMP_pressure;BME280_temperature;BME280_humidity;BME280_pressure;Samples;Min_cycle;Max_cycle;Signal;HPM_P1;HPM_P2
2023/03/01 00:01:09;;;;;;;0.95;0.95;;;0.20;99.90;;;;;;4394778;32;20129;-78
2023/03/01 00:03:34;;;;;;;0.80;0.80;;;0.30;99.90;;;;;;4396199;32;20074;-77
2023/03/01 00:06:01;;;;;;;0.90;0.90;;;0.30;99.90;;;;;;4397787;32;20597;-76
2023/03/01 00:08:27;;;;;;;1.73;1.45;;;0.30;99.90;;;;;;4394952;32;20065;-77
2023/03/01 00:11:02;;;;;;;1.45;1.35;;;0.20;99.90;;;;;;4392341;32;20095;-74
2023/03/01 00:13:28;;;;;;;1.17;1.12;;;0.00;99.90;;;;;;4393974;32;20090;-76
2023/03/01 00:15:53;;;;;;;1.87;1.65;;;0.10;99.90;;;;;;4396968;32;20483;-76
2023/03/01 00:18:19;;;;;;;0.95;0.95;;;0.10;99.90;;;;;;4396552;32;20069;-76
2023/03/01 00:20:51;;;;;;;0.85;0.85;;;0.00;99.90;;;;;;4395510;32;20144;-75
2023/03/01 00:23:16;;;;;;;2.50;1.55;;;0.10;99.90;;;;;;4396332;32;20066;-77
2023/03/01 00:25:42;;;;;;;7.60;1.42;;;0.10;99.90;;;;;;4395281;32;20153;-76
2023/03/01 00:28:08;;;;;;;2.15;1.17;;;0.10;99.90;;;;;;4395199;32;20074;-77
2023/03/01 00:30:33;;;;;;;1.20;1.10;;;0.00;99.90;;;;;;4394621;32;20105;-76
2023/03/01 00:32:59;;;;;;;0.85;0.85;;;0.00;99.90;;;;;;4393236;32;20554;-77
2023/03/01 00:35:24;;;;;;;0.80;0.80;;;0.00;99.90;;;;;;4396984;32;20186;-76
2023/03/01 00:37:57;;;;;;;0.62;0.62;;;-0.10;99.90;;;;;;4395699;32;20081;-76
2023/03/01 00:40:23;;;;;;;0.50;0.50;;;-0.20;99.90;;;;;;4395713;32;20549;-76
2023/03/01 00:42:49;;;;;;;1.20;1.10;;;-0.20;99.90;;;;;;4391537;32;20110;-77
2023/03/01 00:45:14;;;;;;;7.57;1.98;;;-0.10;99.90;;;;;;4394522;32;20070;-76
2023/03/01 00:47:40;;;;;;;1.80;1.70;;;-0.10;99.90;;;;;;4394864;32;20085;-76
2023/03/01 00:50:06;;;;;;;0.82;0.82;;;-0.30;99.90;;;;;;4395537;32;20116;-78
2023/03/01 00:52:31;;;;;;;1.05;0.98;;;-0.30;99.90;;;;;;4393056;32;20078;-77
2023/03/01 00:54:57;;;;;;;0.98;0.98;;;-0.40;99.90;;;;;;4394687;32;20125;-77
2023/03/01 00:57:23;;;;;;;1.33;1.23;;;-0.40;99.90;;;;;;4397162;32;20102;-77
2023/03/01 00:59:49;;;;;;;1.10;1.05;;;-0.40;99.90;;;;;;4393912;32;20128;-78
2023/03/01 01:02:14;;;;;;;1.42;1.00;;;-0.30;99.90;;;;;;4396324;32;20101;-78
2023/03/01 01:04:40;;;;;;;0.62;0.62;;;-0.20;99.90;;;;;;4394452;32;20146;-78
2023/03/01 01:07:06;;;;;;;0.70;0.70;;;-0.20;99.90;;;;;;4394011;32;20085;-77
2023/03/01 01:09:31;;;;;;;0.80;0.80;;;-0.40;99.90;;;;;;4394704;32;20190;-77
2023/03/01 01:11:57;;;;;;;1.40;1.33;;;-0.40;99.90;;;;;;4394200;32;20458;-78
2023/03/01 01:14:22;;;;;;;6.32;1.55;;;-0.30;99.90;;;;;;4395383;32;20093;-77
2023/03/01 01:16:48;;;;;;;0.95;0.93;;;-0.10;99.90;;;;;;4395334;32;20145;-76
2023/03/01 01:19:14;;;;;;;0.50;0.50;;;-0.20;99.90;;;;;;4395139;32;20074;-75
2023/03/01 01:21:42;;;;;;;1.52;1.42;;;-0.40;99.90;;;;;;4394327;32;20135;-75
2023/03/01 01:24:08;;;;;;;0.82;0.82;;;-0.30;99.90;;;;;;4394976;32;20090;-76
2023/03/01 01:26:34;;;;;;;0.55;0.55;;;-0.30;99.90;;;;;;4395932;32;20113;-74
2023/03/01 01:29:01;;;;;;;0.70;0.68;;;-0.40;99.90;;;;;;4393699;32;20066;-75
2023/03/01 01:31:27;;;;;;;0.70;0.70;;;-0.40;99.90;;;;;;4390004;32;20078;-76
2023/03/01 01:33:54;;;;;;;0.70;0.70;;;-0.40;99.90;;;;;;4392919;32;20082;-77
2023/03/01 01:36:19;;;;;;;0.77;0.77;;;-0.50;99.90;;;;;;4393197;32;20065;-76
2023/03/01 01:38:45;;;;;;;1.10;1.05;;;-0.50;99.90;;;;;;4394401;32;20090;-75
2023/03/01 01:41:12;;;;;;;1.23;1.12;;;-0.40;99.90;;;;;;4395528;32;20137;-76
2023/03/01 01:43:41;;;;;;;1.35;1.20;;;-0.30;99.90;;;;;;4394992;32;20093;-76
2023/03/01 01:46:29;;;;;;;0.75;0.75;;;-0.40;99.90;;;;;;4395982;32;20493;-76
2023/03/01 01:48:58;;;;;;;0.90;0.90;;;-0.40;99.90;;;;;;4384686;32;20102;-76
2023/03/01 01:51:27;;;;;;;13.20;3.87;;;-0.40;99.90;;;;;;4394800;32;20071;-78
2023/03/01 01:54:00;;;;;;;0.82;0.82;;;-0.40;99.90;;;;;;4393771;32;20066;-77
2023/03/01 01:56:28;;;;;;;0.85;0.85;;;-0.40;99.90;;;;;;4394011;32;20085;-76
2023/03/01 01:58:55;;;;;;;1.75;1.48;;;-0.30;99.90;;;;;;4394160;32;21192;-78
2023/03/01 02:01:21;;;;;;;0.82;0.82;;;-0.30;99.90;;;;;;4396875;32;21369;-75
2023/03/01 02:03:48;;;;;;;0.90;0.90;;;-0.30;99.90;;;;;;4392562;32;20106;-76
2023/03/01 02:06:32;;;;;;;1.12;1.12;;;-0.40;99.90;;;;;;4396319;32;20090;-77
2023/03/01 02:09:01;;;;;;;1.12;1.00;;;-0.70;99.90;;;;;;4394000;32;20121;-78
2023/03/01 02:11:29;;;;;;;5.85;1.83;;;-0.80;99.90;;;;;;4393697;32;20485;-77
2023/03/01 02:13:55;;;;;;;0.52;0.52;;;-0.70;99.90;;;;;;4393079;32;20906;-78
2023/03/01 02:16:21;;;;;;;2.60;1.37;;;-0.50;99.90;;;;;;4396316;32;20097;-78
2023/03/01 02:18:46;;;;;;;0.75;0.75;;;-0.50;99.90;;;;;;4395774;32;20098;-78
2023/03/01 02:21:14;;;;;;;3.33;1.85;;;-0.60;99.90;;;;;;4391800;32;20055;-77
2023/03/01 02:23:40;;;;;;;1.23;1.15;;;-0.70;99.90;;;;;;4394638;32;20114;-78
2023/03/01 02:26:18;;;;;;;0.50;0.50;;;-0.70;99.90;;;;;;4394340;32;20113;-75
2023/03/01 02:28:44;;;;;;;1.10;1.10;;;-0.60;99.90;;;;;;4392547;32;20101;-76
2023/03/01 02:31:45;;;;;;;0.73;0.73;;;-0.50;99.90;;;;;;4391794;32;20524;-76
2023/03/01 02:34:00;;;;;;;1.58;1.12;;;-0.40;99.90;;;;;;4392132;32;20090;-75
2023/03/01 02:36:31;;;;;;;0.60;0.60;;;-0.40;99.90;;;;;;4392894;32;20101;-77
2023/03/01 02:39:00;;;;;;;0.82;0.82;;;-0.50;99.90;;;;;;4391775;32;20081;-76
2023/03/01 02:41:28;;;;;;;0.85;0.65;;;-0.80;99.90;;;;;;4395591;32;20090;-76
2023/03/01 02:43:53;;;;;;;0.82;0.82;;;-0.90;99.90;;;;;;4395529;32;20473;-77
2023/03/01 02:46:23;;;;;;;1.45;1.35;;;-1.00;99.90;;;;;;4392976;32;20421;-77
2023/03/01 02:48:52;;;;;;;0.90;0.90;;;-1.00;99.90;;;;;;4394582;32;20077;-77
2023/03/01 02:51:29;;;;;;;0.40;0.40;;;-1.00;99.90;;;;;;4393902;32;20139;-77
2023/03/01 02:54:15;;;;;;;0.68;0.68;;;-1.00;99.90;;;;;;4380122;32;20129;-77
2023/03/01 02:56:42;;;;;;;1.30;1.20;;;-1.00;99.90;;;;;;4379086;32;20110;-78
2023/03/01 02:59:09;;;;;;;0.95;0.95;;;-1.00;99.90;;;;;;4392273;32;20073;-77
2023/03/01 03:01:38;;;;;;;3.47;1.87;;;-0.90;99.90;;;;;;4392908;32;20101;-77
2023/03/01 03:04:07;;;;;;;0.82;0.82;;;-1.00;99.90;;;;;;4390970;32;20110;-77
2023/03/01 03:06:33;;;;;;;0.57;0.57;;;-0.90;99.90;;;;;;4395107;32;20078;-76
2023/03/01 03:08:59;;;;;;;4.40;1.80;;;-0.90;99.90;;;;;;4384494;32;20175;-75
2023/03/01 03:11:25;;;;;;;8.05;3.55;;;-1.00;99.90;;;;;;4397035;32;20478;-75
2023/03/01 03:13:51;;;;;;;2.72;1.30;;;-1.10;99.90;;;;;;4394878;32;20077;-75
2023/03/01 03:16:17;;;;;;;2.47;1.62;;;-1.10;99.90;;;;;;4396357;32;20078;-75
2023/03/01 03:18:43;;;;;;;0.60;0.60;;;-1.00;99.90;;;;;;4396843;32;20082;-75
2023/03/01 03:21:11;;;;;;;1.62;1.37;;;-0.90;99.90;;;;;;4393085;32;20098;-76
2023/03/01 03:23:37;;;;;;;27.08;2.87;;;-0.90;99.90;;;;;;4393077;32;20070;-76
2023/03/01 03:26:04;;;;;;;0.55;0.55;;;-0.90;99.90;;;;;;4393581;32;20082;-76
2023/03/01 03:28:31;;;;;;;1.12;1.10;;;-0.90;99.90;;;;;;4395201;32;20133;-76
2023/03/01 03:30:58;;;;;;;0.98;0.98;;;-0.90;99.90;;;;;;4394445;32;20082;-75
2023/03/01 03:33:24;;;;;;;1.20;1.20;;;-0.80;99.90;;;;;;4394450;32;20530;-76
2023/03/01 03:35:50;;;;;;;9.45;1.10;;;-0.80;99.90;;;;;;4394755;32;20070;-75
2023/03/01 03:38:18;;;;;;;1.08;1.02;;;-0.80;99.90;;;;;;4396651;32;20099;-75
2023/03/01 03:40:47;;;;;;;0.60;0.60;;;-0.80;99.90;;;;;;4394910;32;20081;-75
2023/03/01 03:43:15;;;;;;;2.50;2.05;;;-0.80;99.90;;;;;;4393639;32;20085;-75
2023/03/01 03:45:40;;;;;;;18.02;1.30;;;-0.90;99.90;;;;;;4396350;32;20141;-75
2023/03/01 03:48:09;;;;;;;1.00;0.85;;;-0.90;99.90;;;;;;4396351;32;20578;-75
2023/03/01 03:50:34;;;;;;;1.62;1.52;;;-0.80;99.90;;;;;;4396114;32;20078;-76
2023/03/01 03:53:02;;;;;;;0.57;0.57;;;-1.10;99.90;;;;;;4393971;32;20066;-76
2023/03/01 03:55:30;;;;;;;1.33;1.23;;;-1.20;99.90;;;;;;4394533;32;20054;-76
2023/03/01 03:57:58;;;;;;;0.62;0.62;;;-1.00;99.90;;;;;;4393182;32;20101;-75
2023/03/01 04:00:25;;;;;;;2.05;0.88;;;-1.00;99.90;;;;;;4394823;32;20058;-76
2023/03/01 04:02:51;;;;;;;0.80;0.80;;;-1.00;99.90;;;;;;4394048;32;20626;-75
2023/03/01 04:05:18;;;;;;;1.37;1.27;;;-1.10;99.90;;;;;;4394888;32;20074;-76
2023/03/01 04:07:45;;;;;;;1.40;1.35;;;-1.20;99.90;;;;;;4395051;32;20069;-76
2023/03/01 04:10:16;;;;;;;1.62;1.27;;;-1.20;99.90;;;;;;4395134;32;20093;-74
2023/03/01 04:12:43;;;;;;;0.68;0.68;;;-1.10;99.90;;;;;;4394091;32;20081;-75
2023/03/01 04:15:13;;;;;;;0.85;0.85;;;-1.10;99.90;;;;;;4393591;32;20073;-75
2023/03/01 04:17:41;;;;;;;1.55;1.45;;;-1.10;99.90;;;;;;4392907;32;20106;-75
2023/03/01 04:20:09;;;;;;;0.77;0.65;;;-1.10;99.90;;;;;;4393375;32;20427;-75
2023/03/01 04:22:35;;;;;;;0.70;0.70;;;-1.30;99.90;;;;;;4394821;32;20082;-76
2023/03/01 04:25:01;;;;;;;0.55;0.55;;;-1.50;99.90;;;;;;4394940;32;20117;-77
2023/03/01 04:27:27;;;;;;;0.82;0.82;;;-1.60;99.90;;;;;;4390790;32;20070;-75
2023/03/01 04:29:52;;;;;;;6.32;1.35;;;-1.70;99.90;;;;;;4393537;32;20094;-76
2023/03/01 04:32:18;;;;;;;1.45;1.35;;;-1.60;99.90;;;;;;4394062;32;20098;-75
2023/03/01 04:34:43;;;;;;;0.50;0.50;;;-1.50;99.90;;;;;;4394202;32;20067;-75
2023/03/01 04:37:09;;;;;;;1.02;1.02;;;-1.40;99.90;;;;;;4393782;32;20112;-74
2023/03/01 04:39:45;;;;;;;2.42;1.62;;;-1.30;99.90;;;;;;4393453;32;20074;-75
2023/03/01 04:42:11;;;;;;;0.80;0.80;;;-1.20;99.90;;;;;;4387421;32;20082;-76
2023/03/01 04:44:37;;;;;;;0.77;0.77;;;-1.20;99.90;;;;;;4395614;32;20501;-76
2023/03/01 04:47:03;;;;;;;1.65;1.20;;;-1.20;99.90;;;;;;4393684;32;20141;-75
2023/03/01 04:49:28;;;;;;;1.83;1.73;;;-1.10;99.90;;;;;;4392700;32;20069;-74
2023/03/01 04:51:54;;;;;;;2.10;1.35;;;-1.20;99.90;;;;;;4390079;32;20101;-75
2023/03/01 04:54:19;;;;;;;0.70;0.70;;;-1.30;99.90;;;;;;4393896;32;20086;-74
2023/03/01 04:56:45;;;;;;;1.45;1.15;;;-1.20;99.90;;;;;;4392141;32;20098;-76
2023/03/01 04:59:12;;;;;;;0.70;0.70;;;-1.20;99.90;;;;;;4392871;32;20086;-74
2023/03/01 05:01:38;;;;;;;0.60;0.60;;;-1.30;99.90;;;;;;4390722;32;20085;-75
2023/03/01 05:04:05;;;;;;;0.73;0.73;;;-1.30;99.90;;;;;;4393090;32;20070;-76
2023/03/01 05:06:31;;;;;;;0.60;0.60;;;-1.50;99.90;;;;;;4396277;32;20086;-74
2023/03/01 05:08:56;;;;;;;1.25;1.17;;;-1.70;99.90;;;;;;4392375;32;20098;-74
2023/03/01 05:11:22;;;;;;;0.80;0.80;;;-1.70;99.90;;;;;;4392318;32;20186;-75
2023/03/01 05:13:49;;;;;;;1.23;1.12;;;-1.70;99.90;;;;;;4391963;32;20074;-76
2023/03/01 05:16:16;;;;;;;0.50;0.50;;;-1.70;99.90;;;;;;4391849;32;20601;-76
2023/03/01 05:18:43;;;;;;;0.52;0.52;;;-1.70;99.90;;;;;;4392417;32;20462;-75
2023/03/01 05:21:12;;;;;;;1.40;1.30;;;-1.60;99.90;;;;;;4387834;32;21222;-75
2023/03/01 05:23:38;;;;;;;0.98;0.98;;;-1.50;99.90;;;;;;4391755;32;20078;-75
2023/03/01 05:26:05;;;;;;;0.60;0.60;;;-1.40;99.90;;;;;;4390406;32;20095;-76
2023/03/01 05:28:31;;;;;;;0.70;0.70;;;-1.50;99.90;;;;;;4393229;32;20073;-75
2023/03/01 05:30:58;;;;;;;0.50;0.50;;;-1.90;99.90;;;;;;4392218;32;20577;-75
2023/03/01 05:33:24;;;;;;;1.23;1.15;;;-2.00;99.90;;;;;;4394791;32;20095;-73
2023/03/01 05:35:51;;;;;;;1.02;1.02;;;-1.80;99.90;;;;;;4393796;32;20066;-73
2023/03/01 05:38:17;;;;;;;0.70;0.70;;;-1.70;99.90;;;;;;4392898;32;20430;-74
2023/03/01 05:40:45;;;;;;;1.65;1.52;;;-1.70;99.90;;;;;;4390889;32;20058;-73
2023/03/01 05:43:11;;;;;;;1.35;1.12;;;-1.60;99.90;;;;;;4388973;32;20082;-74
2023/03/01 05:45:38;;;;;;;1.12;1.02;;;-1.50;99.90;;;;;;4389479;32;20407;-72
2023/03/01 05:48:04;;;;;;;0.73;0.73;;;-1.50;99.90;;;;;;4392444;32;20144;-72
2023/03/01 05:50:33;;;;;;;9.32;2.15;;;-1.40;99.90;;;;;;4391371;32;20501;-74
2023/03/01 05:53:07;;;;;;;0.40;0.40;;;-1.40;99.90;;;;;;4393841;32;20062;-72
2023/03/01 05:55:34;;;;;;;5.90;3.03;;;-1.40;99.90;;;;;;4392328;32;20070;-72
2023/03/01 05:58:02;;;;;;;11.75;1.90;;;-1.50;99.90;;;;;;4392412;32;20196;-73
2023/03/01 06:00:29;;;;;;;0.70;0.70;;;-1.60;99.90;;;;;;4387236;32;20156;-72
2023/03/01 06:02:56;;;;;;;2.42;1.80;;;-1.60;99.90;;;;;;4386405;32;20086;-73
2023/03/01 06:05:22;;;;;;;0.50;0.50;;;-1.60;99.90;;;;;;4388225;32;20094;-75
2023/03/01 06:07:50;;;;;;;1.95;1.75;;;-1.60;99.90;;;;;;4393053;32;20951;-74
2023/03/01 06:10:17;;;;;;;1.15;1.15;;;-1.70;99.90;;;;;;4390773;32;20073;-73
2023/03/01 06:12:43;;;;;;;0.62;0.62;;;-1.90;99.90;;;;;;4388632;32;20069;-71
2023/03/01 06:15:10;;;;;;;1.35;1.25;;;-2.00;99.90;;;;;;4394004;32;20099;-72
2023/03/01 06:17:38;;;;;;;0.52;0.52;;;-2.10;99.90;;;;;;4384116;32;20141;-75
2023/03/01 06:20:05;;;;;;;0.60;0.60;;;-1.90;99.90;;;;;;4387521;32;20099;-73
2023/03/01 06:22:31;;;;;;;1.08;1.08;;;-1.80;99.90;;;;;;4388969;32;20066;-72
2023/03/01 06:24:56;;;;;;;1.15;1.05;;;-1.70;99.90;;;;;;4386684;32;20090;-75
2023/03/01 06:27:22;;;;;;;0.80;0.80;;;-1.60;99.90;;;;;;4378934;32;21032;-73
2023/03/01 06:29:48;;;;;;;2.33;1.05;;;-1.50;99.90;;;;;;4383126;32;20117;-76
2023/03/01 06:32:14;;;;;;;2.53;1.48;;;-1.50;99.90;;;;;;4369209;32;20099;-74
2023/03/01 06:34:41;;;;;;;1.98;1.65;;;-1.50;99.90;;;;;;4383486;32;20551;-75
2023/03/01 06:37:07;;;;;;;1.55;1.40;;;-1.40;99.90;;;;;;4381029;32;20085;-77
2023/03/01 06:39:33;;;;;;;0.57;0.57;;;-1.40;99.90;;;;;;4386225;32;20506;-75
2023/03/01 06:42:04;;;;;;;2.58;1.77;;;-1.40;99.90;;;;;;4380817;32;20177;-76
2023/03/01 06:44:30;;;;;;;2.37;1.45;;;-1.40;99.90;;;;;;4378094;32;20111;-73
2023/03/01 06:46:55;;;;;;;0.65;0.65;;;-1.20;99.90;;;;;;4383653;32;20105;-75
2023/03/01 06:49:21;;;;;;;0.62;0.62;;;-1.10;99.90;;;;;;4378702;32;20129;-77
2023/03/01 06:51:46;;;;;;;2.62;1.58;;;-0.90;99.90;;;;;;4383633;32;20102;-77
2023/03/01 06:54:12;;;;;;;0.62;0.62;;;-0.80;99.90;;;;;;4378771;32;20806;-75
2023/03/01 06:56:38;;;;;;;0.85;0.85;;;-0.70;99.90;;;;;;4366132;32;20423;-74
2023/03/01 06:59:04;;;;;;;0.80;0.80;;;-0.60;99.90;;;;;;4370063;32;20101;-76
2023/03/01 07:01:30;;;;;;;1.25;1.12;;;-0.50;99.90;;;;;;4352043;32;20101;-74
2023/03/01 07:03:56;;;;;;;9.65;2.25;;;-0.50;99.90;;;;;;4347100;32;20103;-74
2023/03/01 07:06:22;;;;;;;1.45;1.35;;;-0.50;99.90;;;;;;4342319;32;20126;-74
2023/03/01 07:08:48;;;;;;;4.85;2.03;;;-0.60;99.90;;;;;;4355384;32;20217;-76
2023/03/01 07:11:14;;;;;;;0.98;0.98;;;-0.40;99.90;;;;;;4364542;32;21004;-76
2023/03/01 07:13:40;;;;;;;4.57;2.45;;;-0.30;99.90;;;;;;4355916;32;20188;-73
2023/03/01 07:16:07;;;;;;;0.47;0.47;;;-0.10;99.90;;;;;;4351334;32;20181;-76
2023/03/01 07:18:33;;;;;;;2.25;2.05;;;-0.10;99.90;;;;;;4345512;32;20090;-78
2023/03/01 07:21:09;;;;;;;0.75;0.75;;;0.00;99.90;;;;;;4357566;32;20091;-75
2023/03/01 07:23:35;;;;;;;0.73;0.73;;;0.10;99.90;;;;;;4354163;32;20094;-77
2023/03/01 07:26:01;;;;;;;7.97;2.78;;;0.20;99.90;;;;;;4350080;32;20093;-76
2023/03/01 07:28:27;;;;;;;2.08;1.90;;;0.30;99.90;;;;;;4357621;32;21298;-75
2023/03/01 07:30:53;;;;;;;3.05;2.47;;;0.40;99.90;;;;;;4362552;32;20073;-76
2023/03/01 07:33:18;;;;;;;3.78;2.45;;;0.50;99.90;;;;;;4358645;32;20177;-75
2023/03/01 07:35:44;;;;;;;3.08;2.78;;;0.70;99.90;;;;;;4349722;32;20136;-77
2023/03/01 07:38:09;;;;;;;3.10;2.42;;;0.80;99.90;;;;;;4350638;32;20098;-76
2023/03/01 07:40:35;;;;;;;5.35;2.95;;;0.80;99.90;;;;;;4349524;32;20140;-76
2023/03/01 07:43:01;;;;;;;7.28;3.47;;;1.00;99.90;;;;;;4358734;32;20113;-74
2023/03/01 07:45:27;;;;;;;2.17;1.98;;;1.10;99.90;;;;;;4355087;32;20177;-76
2023/03/01 07:47:54;;;;;;;1.33;1.23;;;1.20;99.90;;;;;;4358419;32;20122;-76
2023/03/01 07:50:21;;;;;;;1.42;1.33;;;1.30;99.90;;;;;;4363525;32;20114;-76
2023/03/01 07:52:47;;;;;;;0.98;0.98;;;1.40;99.90;;;;;;4360383;32;20098;-74
2023/03/01 07:55:14;;;;;;;1.10;1.08;;;1.60;99.90;;;;;;4360258;32;20093;-75
2023/03/01 07:57:40;;;;;;;2.58;1.92;;;1.70;99.90;;;;;;4330802;32;20663;-75
2023/03/01 08:00:09;;;;;;;1.20;1.10;;;1.80;99.90;;;;;;4348834;32;20114;-76
2023/03/01 08:02:36;;;;;;;1.45;1.35;;;2.00;99.90;;;;;;4358130;32;20110;-75
2023/03/01 08:05:03;;;;;;;0.70;0.70;;;2.20;99.90;;;;;;4361007;32;20106;-74
2023/03/01 08:07:28;;;;;;;1.25;1.12;;;2.30;99.90;;;;;;4354582;32;20086;-74
2023/03/01 08:09:54;;;;;;;4.07;2.97;;;2.50;99.90;;;;;;4352509;32;20106;-76
2023/03/01 08:12:20;;;;;;;0.77;0.77;;;2.60;99.90;;;;;;4353773;32;20515;-77
2023/03/01 08:14:49;;;;;;;1.27;1.12;;;2.60;99.90;;;;;;4350765;32;20197;-74
2023/03/01 08:17:14;;;;;;;1.48;1.37;;;2.60;99.90;;;;;;4347737;32;20815;-76
2023/03/01 08:19:40;;;;;;;0.82;0.82;;;2.70;99.90;;;;;;4347291;32;20102;-76
2023/03/01 08:22:06;;;;;;;1.50;1.30;;;2.80;99.90;;;;;;4350198;32;20101;-78
2023/03/01 08:24:32;;;;;;;0.80;0.80;;;3.00;99.90;;;;;;4343538;32;20207;-76
2023/03/01 08:26:57;;;;;;;4.15;1.30;;;3.10;99.90;;;;;;4341281;32;20098;-75
2023/03/01 08:29:24;;;;;;;3.83;2.55;;;3.20;99.90;;;;;;4342453;32;20115;-76
2023/03/01 08:31:50;;;;;;;5.32;1.62;;;3.40;99.90;;;;;;4342869;32;20098;-78
2023/03/01 08:34:17;;;;;;;4.53;2.67;;;3.50;99.90;;;;;;4351826;32;20307;-77
2023/03/01 08:36:45;;;;;;;1.75;1.45;;;3.50;99.90;;;;;;4360908;32;20105;-75
2023/03/01 08:39:15;;;;;;;3.30;1.92;;;3.70;99.90;;;;;;4354242;32;20170;-76
2023/03/01 08:41:40;;;;;;;11.88;1.83;;;3.90;99.90;;;;;;4375211;32;20122;-76
2023/03/01 08:44:09;;;;;;;0.65;0.60;;;4.00;99.90;;;;;;4373531;32;20408;-75
2023/03/01 08:46:38;;;;;;;1.00;0.85;;;4.00;99.90;;;;;;4358515;32;20101;-75
2023/03/01 08:49:06;;;;;;;0.50;0.50;;;4.10;99.90;;;;;;4355550;32;20904;-74
2023/03/01 08:51:36;;;;;;;0.43;0.43;;;4.30;99.90;;;;;;4337086;32;20123;-75
2023/03/01 08:54:04;;;;;;;0.60;0.60;;;4.40;99.90;;;;;;4345147;32;20094;-74
2023/03/01 08:56:30;;;;;;;0.55;0.55;;;4.60;99.90;;;;;;4343400;32;20139;-76
2023/03/01 08:58:56;;;;;;;1.10;0.80;;;4.50;99.90;;;;;;4342711;32;20098;-73
2023/03/01 09:01:21;;;;;;;0.75;0.75;;;4.60;99.90;;;;;;4352870;32;20111;-73
2023/03/01 09:03:47;;;;;;;0.65;0.65;;;4.80;99.90;;;;;;4347888;32;20069;-75
2023/03/01 09:06:13;;;;;;;0.98;0.90;;;4.90;99.90;;;;;;4350779;32;21518;-74
2023/03/01 09:08:41;;;;;;;0.70;0.70;;;4.90;99.90;;;;;;4338651;32;20098;-75
2023/03/01 09:11:08;;;;;;;0.60;0.60;;;4.90;99.90;;;;;;4351158;32;21641;-75
2023/03/01 09:13:34;;;;;;;1.37;0.62;;;5.00;99.90;;;;;;4341159;32;20133;-74
2023/03/01 09:16:01;;;;;;;1.35;0.93;;;5.20;99.90;;;;;;4358668;32;20134;-73
2023/03/01 09:18:29;;;;;;;0.70;0.70;;;5.30;99.90;;;;;;4349162;32;20102;-73
2023/03/01 09:21:02;;;;;;;0.73;0.68;;;5.50;99.90;;;;;;4343469;32;20106;-73
2023/03/01 09:23:27;;;;;;;1.48;1.23;;;5.50;99.90;;;;;;4351075;32;20127;-74
2023/03/01 09:25:53;;;;;;;0.40;0.40;;;5.40;99.90;;;;;;4339320;32;20244;-73
2023/03/01 09:28:18;;;;;;;0.60;0.60;;;5.50;99.90;;;;;;4344957;32;20098;-76
2023/03/01 09:30:45;;;;;;;0.95;0.88;;;5.50;99.90;;;;;;4354036;32;20715;-76
2023/03/01 09:33:14;;;;;;;0.52;0.52;;;5.80;99.90;;;;;;4349365;32;20844;-74
2023/03/01 09:35:45;;;;;;;0.50;0.50;;;5.80;99.90;;;;;;4349084;32;20749;-75
2023/03/01 09:38:11;;;;;;;3.30;1.85;;;5.90;99.90;;;;;;4343343;32;21588;-75
2023/03/01 09:40:42;;;;;;;0.85;0.85;;;6.00;99.90;;;;;;4346873;32;20157;-71
2023/03/01 09:43:33;;;;;;;0.75;0.75;;;6.30;99.90;;;;;;4341857;32;21636;-74
2023/03/01 09:46:01;;;;;;;;;;;6.30;99.90;;;;;;4339693;32;20097;-72
2023/03/01 09:48:32;;;;;;;0.65;0.65;;;6.50;99.90;;;;;;4348981;32;20038;-69
2023/03/01 09:51:01;;;;;;;0.85;0.85;;;6.60;99.90;;;;;;4349667;32;20126;-72
2023/03/01 09:53:34;;;;;;;0.80;0.68;;;6.80;99.90;;;;;;4341894;32;20106;-73
2023/03/01 09:56:08;;;;;;;1.98;0.90;;;7.00;99.90;;;;;;4348404;32;20754;-73
2023/03/01 09:58:58;;;;;;;0.55;0.55;;;7.00;99.90;;;;;;4359116;32;20807;-74
2023/03/01 10:01:36;;;;;;;0.90;0.90;;;7.30;99.90;;;;;;4346260;32;21228;-74
2023/03/01 10:04:39;;;;;;;0.45;0.45;;;7.30;99.90;;;;;;4351678;32;20548;-72
2023/03/01 10:07:17;;;;;;;0.95;0.95;;;7.40;99.90;;;;;;4327521;32;20582;-74
2023/03/01 10:09:45;;;;;;;0.70;0.70;;;7.40;99.90;;;;;;4348966;32;20106;-75
2023/03/01 10:12:16;;;;;;;0.60;0.60;;;7.70;99.90;;;;;;4350009;32;20110;-73
2023/03/01 10:14:54;;;;;;;0.95;0.62;;;7.70;99.90;;;;;;4356379;32;20143;-72
2023/03/01 10:17:31;;;;;;;0.88;0.85;;;7.70;99.90;;;;;;4359175;32;20212;-75
2023/03/01 10:20:09;;;;;;;1.20;0.82;;;7.40;99.90;;;;;;4359690;32;20490;-75
2023/03/01 10:22:36;;;;;;;0.80;0.80;;;7.50;99.90;;;;;;4354628;32;20097;-73
2023/03/01 10:25:03;;;;;;;0.40;0.40;;;7.70;99.90;;;;;;4352697;32;20099;-74
2023/03/01 10:27:51;;;;;;;1.55;0.90;;;7.90;99.80;;;;;;4348468;32;20308;-72
2023/03/01 10:30:39;;;;;;;0.57;0.57;;;7.90;99.90;;;;;;4350305;32;20653;-75
2023/03/01 10:33:17;;;;;;;0.45;0.45;;;8.00;99.90;;;;;;4337259;32;20496;-75
2023/03/01 10:35:42;;;;;;;1.85;0.82;;;8.20;99.90;;;;;;4347348;32;20149;-72
2023/03/01 10:38:14;;;;;;;0.50;0.50;;;8.80;99.80;;;;;;4349254;32;20102;-72
2023/03/01 10:40:57;;;;;;;0.50;0.50;;;8.70;99.50;;;;;;4354565;32;20105;-73
2023/03/01 10:43:26;;;;;;;3.10;1.17;;;8.80;99.90;;;;;;4351012;32;20280;-75
2023/03/01 10:45:51;;;;;;;2.17;0.75;;;9.00;98.30;;;;;;4347211;32;20097;-75
2023/03/01 10:48:21;;;;;;;0.55;0.50;;;8.80;97.90;;;;;;4352493;32;21846;-74
2023/03/01 10:50:49;;;;;;;0.60;0.60;;;8.50;97.00;;;;;;4337949;32;20640;-75
2023/03/01 10:53:37;;;;;;;0.55;0.55;;;8.30;97.00;;;;;;4358448;32;20098;-75
2023/03/01 10:56:13;;;;;;;0.45;0.45;;;8.20;98.30;;;;;;4337001;32;21125;-75
2023/03/01 10:58:41;;;;;;;0.68;0.65;;;8.30;99.00;;;;;;4345022;32;20091;-75
2023/03/01 11:01:26;;;;;;;0.50;0.50;;;8.40;98.20;;;;;;4347313;32;20101;-73
2023/03/01 11:04:10;;;;;;;0.50;0.50;;;8.70;98.20;;;;;;4353082;32;20144;-72
2023/03/01 11:06:38;;;;;;;1.83;1.00;;;8.60;96.90;;;;;;4349931;32;20532;-74
2023/03/01 11:09:21;;;;;;;0.57;0.57;;;8.60;95.80;;;;;;4348526;32;21817;-75
2023/03/01 11:11:56;;;;;;;9.38;1.08;;;8.50;96.50;;;;;;4334808;32;20110;-72
2023/03/01 11:14:24;;;;;;;0.45;0.45;;;8.50;97.80;;;;;;4353033;32;20814;-75
2023/03/01 11:17:21;;;;;;;0.60;0.60;;;8.80;96.70;;;;;;4340174;32;20660;-72
2023/03/01 11:20:04;;;;;;;0.98;0.90;;;9.00;96.30;;;;;;4331070;32;20636;-74
2023/03/01 11:22:32;;;;;;;0.65;0.65;;;9.20;94.90;;;;;;4350463;32;20793;-74
2023/03/01 11:24:58;;;;;;;0.50;0.50;;;9.30;94.20;;;;;;4365408;32;20082;-75
2023/03/01 11:27:32;;;;;;;0.60;0.60;;;9.50;93.30;;;;;;4362499;32;20082;-73
2023/03/01 11:30:12;;;;;;;4.43;2.15;;;9.60;93.20;;;;;;4372446;32;20438;-76
2023/03/01 11:32:45;;;;;;;0.70;0.70;;;9.90;92.70;;;;;;4373784;32;20106;-73
2023/03/01 11:35:17;;;;;;;1.42;0.85;;;10.00;91.60;;;;;;4371396;32;20097;-76
2023/03/01 11:38:11;;;;;;;0.60;0.60;;;9.90;91.90;;;;;;4372952;32;20190;-74
2023/03/01 11:40:43;;;;;;;2.05;1.45;;;9.90;91.80;;;;;;4365778;32;20118;-75
2023/03/01 11:43:30;;;;;;;0.62;0.62;;;10.20;91.90;;;;;;4249964;32;3834524;-76
2023/03/01 11:46:16;;;;;;;0.60;0.60;;;10.40;91.50;;;;;;4365817;32;20127;-75
2023/03/01 11:48:58;;;;;;;0.80;0.80;;;10.70;91.40;;;;;;4356348;32;20428;-72
2023/03/01 11:51:33;;;;;;;1.15;1.00;;;10.90;90.90;;;;;;4369040;32;20469;-73
2023/03/01 11:54:12;;;;;;;0.93;0.93;;;10.90;91.50;;;;;;4352526;32;21694;-70
2023/03/01 11:56:42;;;;;;;0.40;0.40;;;10.60;91.40;;;;;;4346667;32;20107;-71
2023/03/01 11:59:24;;;;;;;0.50;0.50;;;11.00;90.40;;;;;;4342120;32;20106;-72
2023/03/01 12:02:15;;;;;;;0.70;0.50;;;11.20;89.70;;;;;;4359080;32;20126;-73
2023/03/01 12:05:03;;;;;;;12.63;1.25;;;11.40;87.70;;;;;;4357820;32;20143;-71
2023/03/01 12:07:40;;;;;;;1.55;1.45;;;11.70;85.70;;;;;;4340085;32;20912;-70
2023/03/01 12:10:33;;;;;;;0.80;0.68;;;11.70;86.10;;;;;;4349569;32;20162;-73
2023/03/01 12:13:38;;;;;;;2.08;1.08;;;11.90;83.70;;;;;;4341390;32;21762;-71
2023/03/01 12:16:17;;;;;;;7.57;0.77;;;11.90;84.10;;;;;;4336552;32;20169;-71
2023/03/01 12:18:57;;;;;;;1.08;0.75;;;12.30;81.00;;;;;;4360367;32;20073;-71
2023/03/01 12:21:32;;;;;;;0.70;0.70;;;12.70;80.70;;;;;;4345231;32;21385;-72
2023/03/01 12:24:38;;;;;;;1.25;1.08;;;13.00;79.60;;;;;;4349638;32;20090;-74
2023/03/01 12:27:28;;;;;;;1.25;1.10;;;13.30;78.90;;;;;;4339299;32;20109;-70
2023/03/01 12:30:24;;;;;;;0.52;0.52;;;13.00;77.60;;;;;;4351995;32;20097;-73
2023/03/01 12:33:18;;;;;;;1.87;1.25;;;13.50;77.20;;;;;;4350806;32;20679;-73
2023/03/01 12:35:52;;;;;;;0.85;0.60;;;13.50;77.00;;;;;;4322094;32;20106;-73
2023/03/01 12:38:45;;;;;;;0.50;0.50;;;13.50;77.80;;;;;;4348807;32;20176;-72
2023/03/01 12:41:27;;;;;;;0.95;0.85;;;13.50;74.80;;;;;;4350157;32;21122;-75
2023/03/01 12:43:57;;;;;;;0.73;0.70;;;13.80;77.10;;;;;;4353635;32;20109;-71
2023/03/01 12:46:52;;;;;;;0.73;0.73;;;13.40;75.10;;;;;;4326178;32;20109;-74
2023/03/01 12:49:25;;;;;;;0.50;0.50;;;13.70;72.00;;;;;;4322857;32;20355;-74
2023/03/01 12:51:58;;;;;;;0.43;0.43;;;14.00;69.20;;;;;;4330815;32;21063;-74
2023/03/01 12:54:31;;;;;;;0.65;0.65;;;14.40;70.70;;;;;;4343643;32;20093;-73
2023/03/01 12:57:10;;;;;;;0.32;0.32;;;14.80;68.90;;;;;;4344697;32;20106;-74
2023/03/01 13:00:09;;;;;;;0.70;0.70;;;14.80;68.50;;;;;;4339657;32;20102;-73
2023/03/01 13:02:52;;;;;;;0.60;0.60;;;14.50;69.00;;;;;;4328413;32;20781;-73
2023/03/01 13:05:31;;;;;;;0.50;0.50;;;14.90;65.80;;;;;;4340922;32;20122;-72